In Rescue
 
Open Full Screen Window  High Contrast Mode
Wind Gusting 00 knots
03
September 19, 2019 5:34 PM EDT
Weather Information
Wind Direction
  160 °
Wind Speed
  03 kt (3 mph)
Wind Gust
  00 kt (0 mph)
Altimeter
30.30 in
Visibility
10 SM
Temperature
20° C
68° F
Dewpoint
06° C
43° F
Humidity
40%
Sky Condition
Clear
VFR

METAR KCDA 192134Z AUTO 16003KT 10SM CLR 20/06 A3030 RMK AO2 T01950064

FAA Disclaimer: The data displayed is for advisory purposes only and is not to be used for flight planning or operations.